Time;durP1;ratioP1;P1;durP2;ratioP2;P2;SDS_P1;SDS_P2;PMS_P1;PMS_P2;Temp;Humidity;BMP_temperature;BMP_pressure;BME280_temperature;BME280_humidity;BME280_pressure;Samples;Min_cycle;Max_cycle;Signal;HPM_P1;HPM_P2
2023/08/27 00:01:00;;;;;;;5.97;2.40;;;;;;;13.24;100.00;100856.94;4905374;29;20532;-86
2023/08/27 00:03:28;;;;;;;3.45;2.42;;;;;;;13.16;100.00;100845.31;4920485;29;20073;-87
2023/08/27 00:05:56;;;;;;;5.32;2.40;;;;;;;13.01;100.00;100847.66;4920728;29;20078;-86
2023/08/27 00:08:24;;;;;;;3.97;2.60;;;;;;;12.88;100.00;100842.41;4937345;29;20461;-86
2023/08/27 00:10:52;;;;;;;4.60;2.75;;;;;;;12.81;100.00;100821.53;4920681;29;20035;-85
2023/08/27 00:13:17;;;;;;;4.47;2.80;;;;;;;12.82;100.00;100812.28;4937732;29;20064;-85
2023/08/27 00:15:46;;;;;;;3.13;2.43;;;;;;;12.84;100.00;100803.06;4920577;29;20067;-85
2023/08/27 00:18:12;;;;;;;4.88;2.67;;;;;;;12.83;100.00;100804.97;4920563;29;20031;-85
2023/08/27 00:20:39;;;;;;;3.55;2.70;;;;;;;12.81;100.00;100798.91;4920825;29;20122;-85
2023/08/27 00:23:14;;;;;;;3.80;2.65;;;;;;;12.85;100.00;100785.69;4938022;29;20127;-85
2023/08/27 00:25:42;;;;;;;4.97;2.70;;;;;;;12.92;100.00;100778.25;4921239;29;20059;-85
2023/08/27 00:28:08;;;;;;;7.15;3.20;;;;;;;12.97;100.00;100767.47;4920373;29;20122;-85
2023/08/27 00:30:33;;;;;;;6.57;2.63;;;;;;;13.00;100.00;100764.28;4904610;29;20070;-85
2023/08/27 00:32:59;;;;;;;3.40;2.28;;;;;;;12.99;100.00;100765.31;4937076;29;20131;-85
2023/08/27 00:35:24;;;;;;;3.50;2.20;;;;;;;12.97;100.00;100768.28;4904235;29;20182;-85
2023/08/27 00:37:52;;;;;;;6.17;2.00;;;;;;;12.95;100.00;100764.16;4919907;29;20123;-85
2023/08/27 00:40:17;;;;;;;4.22;2.65;;;;;;;12.92;100.00;100759.19;4919886;29;20036;-85
2023/08/27 00:42:43;;;;;;;2.70;2.03;;;;;;;12.92;100.00;100761.91;4936773;29;20457;-85
2023/08/27 00:45:09;;;;;;;4.68;2.15;;;;;;;12.88;100.00;100764.25;4904241;29;20028;-85
2023/08/27 00:47:37;;;;;;;4.33;2.27;;;;;;;12.81;100.00;100755.34;4919910;29;20031;-85
2023/08/27 00:50:08;;;;;;;6.28;2.10;;;;;;;12.79;100.00;100754.75;4919927;29;20039;-85
2023/08/27 00:52:34;;;;;;;4.10;2.03;;;;;;;12.72;100.00;100757.56;4919723;29;20028;-85
2023/08/27 00:55:01;;;;;;;3.92;2.17;;;;;;;12.68;100.00;100752.81;4919559;29;20031;-85
2023/08/27 00:57:26;;;;;;;4.20;1.97;;;;;;;12.62;100.00;100743.69;4919459;29;20055;-85
2023/08/27 00:59:56;;;;;;;4.22;2.00;;;;;;;12.59;100.00;100738.72;4919937;29;20460;-86
2023/08/27 01:02:21;;;;;;;3.20;1.80;;;;;;;12.58;100.00;100748.78;4903943;29;20056;-86
2023/08/27 01:04:49;;;;;;;3.90;2.03;;;;;;;12.57;100.00;100754.44;4904234;29;20043;-85
2023/08/27 01:07:21;;;;;;;3.83;2.40;;;;;;;12.56;100.00;100750.91;4919782;29;20031;-85
2023/08/27 01:09:57;;;;;;;4.07;2.45;;;;;;;12.56;100.00;100745.47;4920044;29;20039;-85
2023/08/27 01:12:43;;;;;;;3.37;2.17;;;;;;;12.56;100.00;100744.63;4919649;29;20032;-85
2023/08/27 01:15:10;;;;;;;4.78;2.45;;;;;;;12.51;100.00;100741.78;4919560;29;20464;-86
2023/08/27 01:17:36;;;;;;;4.38;2.28;;;;;;;12.45;100.00;100735.34;4904272;29;20040;-85
2023/08/27 01:20:05;;;;;;;4.33;2.10;;;;;;;12.38;100.00;100735.44;4919208;29;20050;-85
2023/08/27 01:22:33;;;;;;;3.03;1.92;;;;;;;12.33;100.00;100745.34;4903899;29;20056;-85
2023/08/27 01:24:58;;;;;;;4.43;2.17;;;;;;;12.28;100.00;100727.84;4919718;29;20031;-85
2023/08/27 01:27:33;;;;;;;5.00;1.90;;;;;;;12.24;100.00;100740.22;4919181;29;20028;-85
2023/08/27 01:30:20;;;;;;;3.22;1.88;;;;;;;12.17;100.00;100739.47;4919690;29;20074;-85
2023/08/27 01:33:00;;;;;;;3.15;1.92;;;;;;;12.15;100.00;100738.88;4919313;29;20032;-86
2023/08/27 01:35:26;;;;;;;4.22;2.10;;;;;;;12.20;100.00;100732.75;4919685;29;20536;-85
2023/08/27 01:37:52;;;;;;;4.33;2.23;;;;;;;12.21;100.00;100729.81;4936132;29;20030;-85
2023/08/27 01:40:21;;;;;;;4.10;2.22;;;;;;;12.28;100.00;100729.72;4903209;29;20130;-86
2023/08/27 01:42:47;;;;;;;3.53;2.25;;;;;;;12.26;100.00;100721.78;4904528;29;20100;-86
2023/08/27 01:45:17;;;;;;;5.43;2.33;;;;;;;12.25;100.00;100722.00;4919288;29;20119;-88
2023/08/27 01:47:43;;;;;;;3.77;2.27;;;;;;;12.32;100.00;100727.38;4919041;29;20028;-88
2023/08/27 01:50:08;;;;;;;3.60;2.20;;;;;;;12.40;100.00;100721.59;4919858;29;20091;-91
2023/08/27 01:52:36;;;;;;;3.80;2.70;;;;;;;12.46;100.00;100717.97;4919651;29;20035;-91
2023/08/27 01:55:04;;;;;;;4.28;2.03;;;;;;;12.51;100.00;100711.84;4919834;29;20059;-91
2023/08/27 01:57:32;;;;;;;4.47;2.40;;;;;;;12.46;100.00;100723.41;4920098;29;20062;-91
2023/08/27 01:59:58;;;;;;;3.10;2.33;;;;;;;12.45;100.00;100717.13;4939949;29;20040;-91
2023/08/27 02:02:23;;;;;;;3.17;2.30;;;;;;;12.49;100.00;100720.22;4922822;29;20047;-91
2023/08/27 02:04:49;;;;;;;4.40;2.58;;;;;;;12.50;100.00;100705.53;4922939;29;20040;-91
2023/08/27 02:07:19;;;;;;;3.40;2.20;;;;;;;12.57;100.00;100713.63;4922627;29;20548;-90
2023/08/27 02:09:47;;;;;;;3.47;2.30;;;;;;;12.59;100.00;100725.94;4939748;29;20035;-91
2023/08/27 02:12:12;;;;;;;3.40;2.50;;;;;;;12.49;100.00;100713.94;4922526;29;20071;-90
2023/08/27 02:14:38;;;;;;;3.27;2.57;;;;;;;12.41;100.00;100724.09;4922514;29;20400;-90
2023/08/27 02:17:04;;;;;;;3.40;2.63;;;;;;;12.38;100.00;100721.81;4923249;29;20377;-90
2023/08/27 02:19:29;;;;;;;5.43;3.03;;;;;;;12.35;100.00;100727.72;4921990;29;20397;-90
2023/08/27 02:21:55;;;;;;;4.90;2.40;;;;;;;12.30;100.00;100722.16;4922487;29;20126;-90
2023/08/27 02:24:20;;;;;;;4.30;2.60;;;;;;;12.28;100.00;100733.28;4923407;29;20062;-90
2023/08/27 02:26:46;;;;;;;2.87;2.53;;;;;;;12.28;100.00;100732.44;4922798;29;20027;-90
2023/08/27 02:29:12;;;;;;;6.82;2.83;;;;;;;12.29;100.00;100712.34;4922793;29;20036;-90
2023/08/27 02:31:40;;;;;;;5.10;3.00;;;;;;;12.30;100.00;100716.72;4922611;29;20031;-91
2023/08/27 02:34:05;;;;;;;4.53;2.97;;;;;;;12.31;100.00;100723.00;4922487;29;20342;-91
2023/08/27 02:36:38;;;;;;;6.88;3.05;;;;;;;12.31;100.00;100731.97;4922050;29;20090;-91
2023/08/27 02:39:04;;;;;;;5.40;3.40;;;;;;;12.35;100.00;100730.44;4922245;29;20032;-91
2023/08/27 02:41:29;;;;;;;5.55;3.15;;;;;;;12.36;100.00;100723.13;4906744;29;20563;-93
2023/08/27 02:43:59;;;;;;;5.90;3.53;;;;;;;12.36;100.00;100725.88;4907769;29;20035;-93
2023/08/27 02:46:25;;;;;;;5.38;3.30;;;;;;;12.37;100.00;100725.63;4908130;29;20091;-92
2023/08/27 02:48:50;;;;;;;3.83;3.23;;;;;;;12.36;100.00;100721.25;4922383;29;20031;-92
2023/08/27 02:51:16;;;;;;;5.53;3.40;;;;;;;12.39;100.00;100722.69;4922698;29;20110;-92
2023/08/27 02:53:44;;;;;;;5.57;3.55;;;;;;;12.42;100.00;100730.38;4939389;29;20382;-92
2023/08/27 02:56:09;;;;;;;7.35;3.78;;;;;;;12.44;100.00;100729.06;4906739;29;20039;-91
2023/08/27 02:58:42;;;;;;;7.93;3.93;;;;;;;12.48;100.00;100725.91;4922340;29;20023;-91
2023/08/27 03:01:07;;;;;;;6.15;3.75;;;;;;;12.51;100.00;100734.44;4922545;29;20028;-91
2023/08/27 03:03:37;;;;;;;5.17;3.43;;;;;;;12.56;100.00;100733.72;4921760;29;20052;-91
2023/08/27 03:06:03;;;;;;;7.00;3.90;;;;;;;12.55;100.00;100732.91;4922784;29;20055;-91
2023/08/27 03:08:31;;;;;;;7.20;4.07;;;;;;;12.58;100.00;100726.19;4924390;29;20453;-91
2023/08/27 03:10:59;;;;;;;8.35;4.63;;;;;;;12.60;100.00;100724.03;4924723;29;20044;-91
2023/08/27 03:13:24;;;;;;;7.15;4.00;;;;;;;12.60;100.00;100718.59;4926405;29;20031;-91
2023/08/27 03:15:49;;;;;;;5.93;3.97;;;;;;;12.61;100.00;100736.59;4939901;29;20047;-91
2023/08/27 03:18:15;;;;;;;6.07;4.20;;;;;;;12.62;100.00;100735.53;4907114;29;20039;-90
2023/08/27 03:20:40;;;;;;;7.90;3.83;;;;;;;12.61;100.00;100728.44;4923291;29;20036;-91
2023/08/27 03:23:06;;;;;;;7.20;3.83;;;;;;;12.60;100.00;100735.75;4943873;29;20027;-92
2023/08/27 03:25:31;;;;;;;6.43;3.93;;;;;;;12.60;100.00;100743.91;4910717;29;20400;-91
2023/08/27 03:27:58;;;;;;;6.03;3.97;;;;;;;12.62;100.00;100749.13;4910582;29;20044;-91
2023/08/27 03:30:24;;;;;;;9.10;4.13;;;;;;;12.60;100.00;100743.09;4930918;29;20079;-93
2023/08/27 03:32:55;;;;;;;9.10;3.97;;;;;;;12.58;100.00;100734.34;4922313;29;20452;-93
2023/08/27 03:35:28;;;;;;;8.10;3.92;;;;;;;12.58;100.00;100728.91;4935565;29;20043;-92
2023/08/27 03:37:53;;;;;;;10.60;3.97;;;;;;;12.54;100.00;100722.25;4933944;29;20040;-93
2023/08/27 03:43:10;;;;;;;10.20;3.70;;;;;;;12.51;100.00;100709.13;4937221;29;20072;-93
2023/08/27 03:45:41;;;;;;;6.95;3.53;;;;;;;12.53;100.00;100713.25;4932842;29;20032;-93
2023/08/27 03:48:07;;;;;;;16.63;4.03;;;;;;;12.51;100.00;100700.94;4933930;29;20063;-93
2023/08/27 03:50:36;;;;;;;10.67;3.60;;;;;;;12.58;100.00;100701.69;4931996;29;20042;-94
2023/08/27 03:53:02;;;;;;;7.70;3.58;;;;;;;12.52;100.00;100702.59;4928327;29;20031;-92
2023/08/27 03:55:30;;;;;;;11.30;4.10;;;;;;;12.54;100.00;100703.22;4923607;29;20063;-92
2023/08/27 03:57:56;;;;;;;8.93;4.00;;;;;;;12.51;100.00;100692.78;4923532;29;20023;-92
2023/08/27 04:00:39;;;;;;;8.10;3.58;;;;;;;12.57;100.00;100689.13;4938740;29;20035;-92
2023/08/27 04:03:08;;;;;;;6.90;3.80;;;;;;;12.66;100.00;100692.34;4924642;29;20055;-92
2023/08/27 04:05:33;;;;;;;9.15;4.20;;;;;;;12.64;100.00;100698.84;4907853;29;20127;-92
2023/08/27 04:08:02;;;;;;;9.50;3.80;;;;;;;12.69;100.00;100703.59;4925590;29;20481;-91
2023/08/27 04:10:27;;;;;;;9.13;3.95;;;;;;;12.71;100.00;100703.34;4905971;29;20059;-91
2023/08/27 04:12:54;;;;;;;8.27;4.20;;;;;;;12.65;100.00;100691.50;4906484;29;20043;-91
2023/08/27 04:15:20;;;;;;;6.22;3.92;;;;;;;12.60;100.00;100684.03;4922153;29;20093;-91
2023/08/27 04:17:48;;;;;;;9.73;3.87;;;;;;;12.62;100.00;100695.53;4905526;29;20051;-91
2023/08/27 04:20:13;;;;;;;12.52;4.40;;;;;;;12.64;100.00;100701.56;4921287;29;20035;-91
2023/08/27 04:22:39;;;;;;;9.63;4.50;;;;;;;12.61;100.00;100706.66;4920723;29;20127;-91
2023/08/27 04:25:08;;;;;;;9.05;4.05;;;;;;;12.59;100.00;100704.19;4921595;29;20042;-93
2023/08/27 04:27:34;;;;;;;9.00;4.13;;;;;;;12.56;100.00;100704.66;4920761;29;20039;-91
2023/08/27 04:29:59;;;;;;;7.97;4.10;;;;;;;12.54;100.00;100700.47;4920885;29;20596;-92
2023/08/27 04:32:25;;;;;;;12.20;3.73;;;;;;;12.53;100.00;100693.38;4920353;29;20122;-92
2023/08/27 04:34:53;;;;;;;7.70;3.63;;;;;;;12.50;100.00;100699.28;4920351;29;20035;-91
2023/08/27 04:37:18;;;;;;;9.10;4.00;;;;;;;12.48;100.00;100698.69;4920464;29;20031;-92
2023/08/27 04:39:46;;;;;;;10.57;3.53;;;;;;;12.48;100.00;100693.25;4920585;29;20082;-90
2023/08/27 04:42:14;;;;;;;8.45;3.85;;;;;;;12.45;100.00;100697.25;4920190;29;20027;-91
2023/08/27 04:44:41;;;;;;;10.97;4.20;;;;;;;12.44;100.00;100703.75;4904742;29;20039;-91
2023/08/27 04:47:07;;;;;;;7.10;3.40;;;;;;;12.43;100.00;100704.81;4904106;29;20039;-90
2023/08/27 04:49:32;;;;;;;9.70;4.40;;;;;;;12.42;100.00;100695.81;4937494;29;20441;-91
2023/08/27 04:51:58;;;;;;;7.47;4.07;;;;;;;12.46;100.00;100704.38;4937145;29;20416;-91
2023/08/27 04:54:23;;;;;;;8.13;3.70;;;;;;;12.48;100.00;100715.03;4936807;29;20032;-91
2023/08/27 04:56:49;;;;;;;7.67;3.40;;;;;;;12.45;100.00;100719.84;4904075;29;20071;-91
2023/08/27 04:59:14;;;;;;;6.82;3.53;;;;;;;12.42;100.00;100723.03;4919865;29;20527;-91
2023/08/27 05:01:40;;;;;;;6.23;3.23;;;;;;;12.40;100.00;100721.59;4919622;29;20491;-90
2023/08/27 05:04:08;;;;;;;9.27;3.67;;;;;;;12.38;100.00;100729.16;4919609;29;20062;-90
2023/08/27 05:06:36;;;;;;;7.90;3.50;;;;;;;12.37;100.00;100730.22;4904442;29;20388;-90
2023/08/27 05:09:01;;;;;;;7.65;3.58;;;;;;;12.42;100.00;100731.19;4903972;29;20036;-90
2023/08/27 05:11:27;;;;;;;8.23;3.87;;;;;;;12.42;100.00;100731.19;4919815;29;20083;-91
2023/08/27 05:13:55;;;;;;;6.83;4.03;;;;;;;12.46;100.00;100726.97;4919752;29;20083;-91
2023/08/27 05:16:21;;;;;;;6.97;4.15;;;;;;;12.51;100.00;100728.16;4937037;29;20032;-91
2023/08/27 05:18:49;;;;;;;7.47;3.77;;;;;;;12.54;100.00;100727.69;4919349;29;20035;-91
2023/08/27 05:21:19;;;;;;;7.60;4.20;;;;;;;12.57;100.00;100733.50;4919683;29;20465;-91
2023/08/27 05:23:53;;;;;;;6.32;3.97;;;;;;;12.59;100.00;100727.81;4919759;29;20087;-90
2023/08/27 05:26:21;;;;;;;6.63;3.75;;;;;;;12.60;100.00;100724.03;4920164;29;20144;-91
2023/08/27 05:28:47;;;;;;;8.55;4.30;;;;;;;12.59;100.00;100722.38;4919804;29;20050;-92
2023/08/27 05:31:12;;;;;;;9.40;4.30;;;;;;;12.59;100.00;100727.81;4919213;29;20035;-86
2023/08/27 05:33:37;;;;;;;9.67;4.23;;;;;;;12.63;100.00;100718.13;4935866;29;20452;-87
2023/08/27 05:36:03;;;;;;;9.68;4.50;;;;;;;12.63;100.00;100713.50;4903664;29;20040;-86
2023/08/27 05:38:28;;;;;;;9.27;4.53;;;;;;;12.62;100.00;100717.31;4919022;29;20027;-86
2023/08/27 05:40:54;;;;;;;9.00;4.13;;;;;;;12.64;100.00;100719.81;4936633;29;20083;-87
2023/08/27 05:43:19;;;;;;;10.23;4.40;;;;;;;12.64;100.00;100728.78;4919750;29;20076;-87
2023/08/27 05:45:44;;;;;;;9.43;4.90;;;;;;;12.65;100.00;100729.59;4903943;29;20032;-85
2023/08/27 05:48:10;;;;;;;7.88;4.65;;;;;;;12.67;100.00;100726.66;4911555;29;20071;-85
2023/08/27 05:50:36;;;;;;;13.97;5.03;;;;;;;12.78;100.00;100734.88;4903485;29;20031;-84
2023/08/27 05:53:03;;;;;;;8.05;5.18;;;;;;;12.73;100.00;100729.28;4904222;29;20040;-84
2023/08/27 05:55:33;;;;;;;9.73;4.80;;;;;;;12.74;100.00;100724.66;4919235;29;20032;-84
2023/08/27 05:57:59;;;;;;;12.45;5.28;;;;;;;12.75;100.00;100716.25;4936269;29;20193;-85
2023/08/27 06:00:25;;;;;;;12.35;5.35;;;;;;;12.78;100.00;100717.69;4919457;29;20035;-85
2023/08/27 06:02:50;;;;;;;11.33;5.03;;;;;;;12.86;100.00;100717.38;4903328;29;20078;-86
2023/08/27 06:05:15;;;;;;;10.00;5.17;;;;;;;12.86;100.00;100721.97;4936262;29;20384;-86
2023/08/27 06:07:41;;;;;;;9.70;5.30;;;;;;;12.86;100.00;100731.00;4903924;29;20035;-85
2023/08/27 06:10:08;;;;;;;12.23;5.23;;;;;;;12.89;100.00;100713.31;4918896;29;20040;-88
2023/08/27 06:12:33;;;;;;;9.60;4.68;;;;;;;12.84;100.00;100711.31;4903228;29;20059;-88
2023/08/27 06:14:58;;;;;;;11.27;5.37;;;;;;;12.86;100.00;100709.19;4935819;29;20038;-89
2023/08/27 06:17:24;;;;;;;9.30;4.60;;;;;;;12.90;100.00;100710.41;4936117;29;20059;-88
2023/08/27 06:19:49;;;;;;;8.05;4.70;;;;;;;12.81;100.00;100700.88;4903692;29;20043;-88
2023/08/27 06:22:16;;;;;;;8.13;4.90;;;;;;;12.76;100.00;100703.50;4904245;29;20376;-88
2023/08/27 06:24:42;;;;;;;9.70;4.85;;;;;;;12.74;100.00;100702.88;4903380;29;20031;-88
2023/08/27 06:27:07;;;;;;;7.60;4.80;;;;;;;12.76;100.00;100695.34;4903328;29;20094;-87
2023/08/27 06:29:33;;;;;;;9.52;5.32;;;;;;;12.74;100.00;100692.00;4936298;29;20388;-88
2023/08/27 06:31:59;;;;;;;9.53;4.63;;;;;;;12.76;100.00;100698.88;4903122;29;20511;-87
2023/08/27 06:34:24;;;;;;;7.18;5.03;;;;;;;12.77;100.00;100695.09;4919191;29;20031;-88
2023/08/27 06:36:49;;;;;;;11.47;5.00;;;;;;;12.81;100.00;100698.16;4902980;29;20476;-87
2023/08/27 06:39:15;;;;;;;10.33;5.00;;;;;;;12.84;100.00;100694.97;4918728;29;20042;-87
2023/08/27 06:41:41;;;;;;;10.10;5.10;;;;;;;12.84;100.00;100694.97;4918846;29;20396;-87
2023/08/27 06:44:06;;;;;;;10.57;5.22;;;;;;;12.86;100.00;100702.91;4919502;29;20035;-87
2023/08/27 06:46:32;;;;;;;9.70;5.50;;;;;;;12.89;100.00;100700.56;4921923;29;20032;-87
2023/08/27 06:48:57;;;;;;;10.40;5.23;;;;;;;12.92;100.00;100702.00;4922282;29;20036;-88
2023/08/27 06:51:23;;;;;;;7.60;4.90;;;;;;;13.00;100.00;100707.09;4906437;29;20043;-87
2023/08/27 06:53:48;;;;;;;9.40;5.70;;;;;;;13.00;100.00;100707.09;4922161;29;20485;-87
2023/08/27 06:56:13;;;;;;;10.67;5.57;;;;;;;13.06;100.00;100711.59;4906371;29;20054;-87
2023/08/27 06:58:39;;;;;;;10.67;5.50;;;;;;;13.13;100.00;100703.31;4922290;29;20520;-86
2023/08/27 07:01:04;;;;;;;9.80;5.88;;;;;;;13.18;100.00;100706.16;4939003;29;20039;-87
2023/08/27 07:03:31;;;;;;;14.77;6.17;;;;;;;13.24;100.00;100709.81;4921629;29;20142;-87
2023/08/27 07:05:59;;;;;;;10.25;5.90;;;;;;;13.28;100.00;100714.56;4938965;29;20036;-86
2023/08/27 07:08:25;;;;;;;12.87;6.17;;;;;;;13.34;100.00;100712.81;4905822;29;20099;-87
2023/08/27 07:10:50;;;;;;;11.23;5.30;;;;;;;13.38;100.00;100716.72;4907025;29;20032;-87
2023/08/27 07:13:15;;;;;;;14.77;6.53;;;;;;;13.47;100.00;100719.94;4921610;29;20044;-87
2023/08/27 07:15:41;;;;;;;11.67;5.93;;;;;;;13.56;100.00;100718.50;4906535;29;20034;-87
2023/08/27 07:18:08;;;;;;;11.23;5.87;;;;;;;13.63;100.00;100716.47;4905911;29;20046;-86
2023/08/27 07:20:34;;;;;;;13.95;5.80;;;;;;;13.78;100.00;100724.16;4938373;29;20031;-85
2023/08/27 07:23:00;;;;;;;9.40;5.73;;;;;;;13.82;100.00;100711.72;4905860;29;20130;-84
2023/08/27 07:25:25;;;;;;;14.25;6.38;;;;;;;13.89;100.00;100708.81;4921525;29;20054;-85
2023/08/27 07:27:50;;;;;;;10.13;5.40;;;;;;;13.91;100.00;100711.34;4921396;29;20472;-84
2023/08/27 07:30:16;;;;;;;12.10;5.43;;;;;;;13.93;100.00;100709.19;4938541;29;20027;-85
2023/08/27 07:32:41;;;;;;;10.13;5.33;;;;;;;14.04;100.00;100709.16;4921417;29;20528;-85
2023/08/27 07:35:07;;;;;;;10.93;5.50;;;;;;;14.09;100.00;100708.44;4921785;29;20288;-84
2023/08/27 07:37:33;;;;;;;11.30;5.50;;;;;;;14.16;100.00;100724.66;4938410;29;20432;-85
2023/08/27 07:39:58;;;;;;;8.98;5.50;;;;;;;14.13;100.00;100716.94;4921357;29;20378;-85
2023/08/27 07:42:24;;;;;;;8.47;5.90;;;;;;;14.23;100.00;100727.25;4921214;29;20388;-84
2023/08/27 07:44:49;;;;;;;11.87;5.90;;;;;;;14.28;100.00;100727.38;4921216;29;20067;-84
2023/08/27 07:47:15;;;;;;;11.35;6.50;;;;;;;14.44;100.00;100721.13;4921200;29;20043;-84
2023/08/27 07:49:40;;;;;;;12.03;6.53;;;;;;;14.68;100.00;100724.59;4938157;29;20525;-84
2023/08/27 07:52:05;;;;;;;11.53;6.33;;;;;;;14.83;100.00;100720.47;4921266;29;20178;-85
2023/08/27 07:54:31;;;;;;;16.60;5.63;;;;;;;14.84;100.00;100716.66;4905164;29;20547;-85
2023/08/27 07:56:56;;;;;;;11.67;5.83;;;;;;;14.82;100.00;100714.19;4920940;29;20436;-85
2023/08/27 07:59:22;;;;;;;11.88;5.57;;;;;;;14.82;100.00;100725.13;4937987;29;20043;-85
2023/08/27 08:01:47;;;;;;;9.33;5.90;;;;;;;14.76;100.00;100717.88;4921478;29;20036;-85
2023/08/27 08:04:14;;;;;;;11.43;5.40;;;;;;;14.83;100.00;100712.28;4937694;29;20063;-91
2023/08/27 08:06:42;;;;;;;8.95;5.35;;;;;;;15.06;100.00;100714.03;4905165;29;20088;-91
2023/08/27 08:09:13;;;;;;;9.65;5.80;;;;;;;15.20;100.00;100704.41;4905415;29;20043;-91
2023/08/27 08:11:41;;;;;;;11.07;5.35;;;;;;;15.43;100.00;100705.28;4921255;29;20039;-91
2023/08/27 08:14:07;;;;;;;9.43;6.30;;;;;;;15.45;100.00;100711.31;4920846;29;20075;-91
2023/08/27 08:16:48;;;;;;;9.82;5.68;;;;;;;15.43;100.00;100710.75;4921001;29;20043;-91
2023/08/27 08:19:17;;;;;;;9.15;5.45;;;;;;;15.33;100.00;100702.41;4921420;29;20465;-92
2023/08/27 08:21:45;;;;;;;7.07;4.80;;;;;;;15.21;100.00;100717.00;4921625;29;20034;-91
2023/08/27 08:24:18;;;;;;;7.68;5.10;;;;;;;15.11;100.00;100716.00;4937671;29;20039;-91
2023/08/27 08:26:46;;;;;;;17.13;5.25;;;;;;;15.03;100.00;100711.81;4906032;29;20130;-92
2023/08/27 08:29:20;;;;;;;9.05;4.40;;;;;;;15.03;100.00;100720.00;4920322;29;20039;-92
2023/08/27 08:32:02;;;;;;;8.00;4.50;;;;;;;15.00;100.00;100721.31;4904787;29;20032;-91
2023/08/27 08:34:28;;;;;;;8.77;4.20;;;;;;;15.01;100.00;100724.88;4938311;29;20031;-91
2023/08/27 08:36:54;;;;;;;7.53;4.53;;;;;;;15.05;100.00;100709.63;4937314;29;20047;-91
2023/08/27 08:39:32;;;;;;;11.93;4.93;;;;;;;15.25;100.00;100725.50;4920194;29;20160;-91
2023/08/27 08:42:14;;;;;;;9.75;4.20;;;;;;;15.43;100.00;100724.44;4916577;29;20031;-91
2023/08/27 08:45:08;;;;;;;7.57;3.73;;;;;;;15.50;100.00;100727.81;4920065;29;20036;-92
2023/08/27 08:47:38;;;;;;;4.40;3.50;;;;;;;15.61;100.00;100723.31;4919999;29;20043;-92
2023/08/27 08:50:20;;;;;;;5.72;3.17;;;;;;;15.75;100.00;100729.25;4920395;29;20028;-91
2023/08/27 08:52:50;;;;;;;3.63;2.33;;;;;;;15.99;100.00;100712.59;4920593;29;20036;-92
2023/08/27 08:55:22;;;;;;;7.32;2.40;;;;;;;16.12;100.00;100712.22;4920655;29;20038;-91
2023/08/27 08:57:59;;;;;;;5.73;2.73;;;;;;;16.20;100.00;100708.22;4920220;29;20087;-91
2023/08/27 09:00:25;;;;;;;8.27;2.50;;;;;;;16.32;100.00;100725.31;4920413;29;20027;-91
2023/08/27 09:03:06;;;;;;;6.95;1.98;;;;;;;16.42;100.00;100717.22;4919445;29;20052;-91
2023/08/27 09:05:35;;;;;;;5.13;1.90;;;;;;;16.47;100.00;100717.25;4905040;29;20040;-91
2023/08/27 09:08:05;;;;;;;5.30;1.88;;;;;;;16.47;100.00;100714.53;4919518;29;20042;-91
2023/08/27 09:10:31;;;;;;;4.47;1.90;;;;;;;16.48;100.00;100707.16;4920078;29;20388;-91
2023/08/27 09:13:29;;;;;;;4.80;1.92;;;;;;;16.46;100.00;100703.81;4919798;29;20078;-91
2023/08/27 09:16:02;;;;;;;4.50;1.90;;;;;;;16.54;100.00;100695.16;4920094;29;20032;-91
2023/08/27 09:18:30;;;;;;;4.82;1.60;;;;;;;16.59;100.00;100688.91;4919848;29;20032;-92
2023/08/27 09:20:58;;;;;;;4.35;1.45;;;;;;;16.77;100.00;100684.94;4919800;29;20050;-91
2023/08/27 09:23:42;;;;;;;;;;;;;;;;;;;;;
2023/08/27 09:26:08;;;;;;;2.67;1.42;;;;;;;17.41;100.00;100681.34;4937436;29;20358;-91
2023/08/27 09:28:40;;;;;;;5.10;1.80;;;;;;;17.56;100.00;100686.09;4919817;29;20028;-91
2023/08/27 09:31:48;;;;;;;5.18;1.35;;;;;;;17.43;100.00;100681.88;4919288;29;20130;-91
2023/08/27 09:34:14;;;;;;;5.70;1.85;;;;;;;17.28;100.00;100673.59;4936532;29;20388;-92
2023/08/27 09:36:42;;;;;;;6.03;1.90;;;;;;;17.20;100.00;100680.41;4919561;29;20034;-91
2023/08/27 09:39:12;;;;;;;4.22;1.77;;;;;;;17.10;100.00;100683.06;4903759;29;20044;-92
2023/08/27 09:41:58;;;;;;;6.43;2.05;;;;;;;16.94;100.00;100669.22;4919281;29;20118;-92
2023/08/27 09:44:27;;;;;;;2.95;1.45;;;;;;;16.98;100.00;100667.63;4920179;29;20038;-92
2023/08/27 09:46:52;;;;;;;5.78;2.00;;;;;;;17.03;100.00;100663.28;4919369;29;20028;-91
2023/08/27 09:49:31;;;;;;;3.77;1.83;;;;;;;17.14;100.00;100654.00;4919721;29;20036;-91
2023/08/27 09:51:58;;;;;;;3.80;1.77;;;;;;;17.30;100.00;100661.28;4919362;29;20042;-91
2023/08/27 09:54:29;;;;;;;5.82;1.80;;;;;;;17.49;100.00;100658.06;4919761;29;20413;-91
2023/08/27 09:56:59;;;;;;;5.47;1.40;;;;;;;17.60;98.61;100662.53;4919780;29;20035;-92
2023/08/27 09:59:26;;;;;;;6.78;2.00;;;;;;;17.49;99.67;100669.03;4919243;29;20043;-91
2023/08/27 10:01:56;;;;;;;3.70;1.50;;;;;;;17.53;100.00;100659.19;4936133;29;20427;-91
2023/08/27 10:04:27;;;;;;;4.75;1.42;;;;;;;17.67;100.00;100665.00;4919282;29;20052;-91
2023/08/27 10:06:55;;;;;;;4.88;1.40;;;;;;;17.85;99.21;100666.47;4919512;29;20039;-91
2023/08/27 10:09:34;;;;;;;4.33;2.00;;;;;;;17.99;95.27;100661.31;4919148;29;20031;-91
2023/08/27 10:12:08;;;;;;;6.80;1.55;;;;;;;18.14;97.95;100657.81;4905056;29;20499;-91
2023/08/27 10:14:41;;;;;;;4.18;1.58;;;;;;;18.37;92.14;100667.47;4919707;29;20032;-91
2023/08/27 10:17:12;;;;;;;3.90;1.38;;;;;;;18.57;93.83;100661.16;4919395;29;20032;-91
2023/08/27 10:19:56;;;;;;;5.35;1.08;;;;;;;18.60;95.56;100666.09;4939143;29;20046;-91
2023/08/27 10:22:28;;;;;;;4.90;1.73;;;;;;;18.69;93.88;100663.63;4922967;29;20048;-92
2023/08/27 10:24:58;;;;;;;4.30;1.23;;;;;;;18.91;92.88;100660.63;4907826;29;20042;-91
2023/08/27 10:27:32;;;;;;;6.72;1.50;;;;;;;19.30;88.05;100667.50;4941058;29;20503;-91
2023/08/27 10:30:07;;;;;;;3.72;1.25;;;;;;;19.55;85.82;100661.09;4922574;29;20127;-91
2023/08/27 10:32:35;;;;;;;3.80;1.05;;;;;;;19.85;82.69;100656.59;4908129;29;20044;-91
2023/08/27 10:35:05;;;;;;;4.20;0.93;;;;;;;20.11;82.53;100657.28;4922175;29;20141;-91
2023/08/27 10:37:33;;;;;;;4.57;1.30;;;;;;;19.72;78.90;100667.06;4922698;29;20469;-92
2023/08/27 10:40:08;;;;;;;7.00;1.40;;;;;;;19.37;81.94;100668.84;4922547;29;20050;-91
2023/08/27 10:42:36;;;;;;;3.63;1.42;;;;;;;19.09;82.82;100664.78;4922683;29;20039;-91
2023/08/27 10:45:27;;;;;;;5.22;1.00;;;;;;;19.04;85.80;100667.50;4922495;29;20388;-91
2023/08/27 10:48:24;;;;;;;3.53;0.70;;;;;;;19.19;84.61;100670.25;4922044;29;20049;-92
2023/08/27 10:50:58;;;;;;;3.80;1.23;;;;;;;18.97;82.30;100684.31;4923867;29;20114;-91
2023/08/27 10:53:24;;;;;;;3.72;1.27;;;;;;;18.95;81.86;100685.66;4922691;29;20032;-91
2023/08/27 10:55:58;;;;;;;6.20;1.38;;;;;;;19.07;84.74;100684.28;4922398;29;20560;-91
2023/08/27 10:58:29;;;;;;;3.63;1.00;;;;;;;19.01;84.21;100670.81;4922916;29;20023;-91
2023/08/27 11:01:02;;;;;;;3.90;1.17;;;;;;;19.08;84.23;100679.63;4922643;29;20028;-91
2023/08/27 11:03:50;;;;;;;2.50;1.10;;;;;;;19.44;79.65;100669.38;4922097;29;20059;-91
2023/08/27 11:06:15;;;;;;;3.40;1.23;;;;;;;20.03;81.27;100663.38;4922336;29;20122;-91
2023/08/27 11:08:44;;;;;;;2.23;0.90;;;;;;;20.60;75.03;100659.16;4921816;29;20241;-90
2023/08/27 11:11:15;;;;;;;3.35;1.30;;;;;;;20.73;72.54;100670.66;4906357;29;20039;-91
2023/08/27 11:13:46;;;;;;;3.75;0.90;;;;;;;20.32;72.79;100689.09;4921972;29;20039;-91
2023/08/27 11:16:17;;;;;;;2.20;0.60;;;;;;;19.78;72.48;100668.75;4906471;29;20036;-91
2023/08/27 11:18:48;;;;;;;1.60;0.60;;;;;;;19.24;73.63;100683.16;4939850;29;20031;-91
2023/08/27 11:21:28;;;;;;;2.20;0.80;;;;;;;18.75;81.71;100695.53;4922480;29;20126;-92
2023/08/27 11:24:31;;;;;;;1.60;0.70;;;;;;;17.16;97.16;100737.66;4922246;29;20118;-93
2023/08/27 11:27:06;;;;;;;1.95;0.70;;;;;;;15.33;100.00;100746.16;4922658;29;20053;-92